Basin, Montana
Current Conditions -  °F | °C
As of 12:53 AM on Tuesday 21 Oct 2014 (Local Time) from KBTM Reporting Station
Clear Clear  
Wind Chill: 51°   Ceiling: Unl
Heat Index: 51°   Visibility: 10mi
Dew Point: 33°   Wind: 9mph
Humidity: 50%   Direction: 210°SSW
Pressure: 29.82"   Gusts: NA
Location:  46.27°N, 112.26°W
Report Text: KBTM 210653Z AUTO 21008KT 10SM CLR 11/01 A2982 RMK AO2 SLP057 T01060006 402221022
Loading
Personal Weather Stations






























Interactive Weather Map
Tropical Storm Tracking
New forecast layout! Learn more

10-Day Weather Forecast

Advertisements
Track Severe Weather on mobile